createdAt,value
2019-06-08T00:01:43.445Z,100094.30
2019-06-08T00:05:48.598Z,100115.20
2019-06-08T00:09:53.738Z,100108.00
2019-06-08T00:13:59.162Z,100098.42
2019-06-08T00:18:04.473Z,100106.89
2019-06-08T00:22:09.678Z,100115.56
2019-06-08T00:26:15.918Z,100110.81
2019-06-08T00:30:21.397Z,100111.23
2019-06-08T00:34:26.696Z,100113.61
2019-06-08T00:38:31.840Z,100136.39
2019-06-08T00:42:36.899Z,100131.51
2019-06-08T00:46:42.042Z,100128.58
2019-06-08T00:50:47.197Z,100117.24
2019-06-08T00:54:52.293Z,100131.42
2019-06-08T00:58:57.456Z,100139.10
2019-06-08T01:03:02.582Z,100142.70
2019-06-08T01:07:07.694Z,100149.62
2019-06-08T01:11:12.803Z,100154.19
2019-06-08T01:15:23.772Z,100160.71
2019-06-08T01:19:25.222Z,100164.61
2019-06-08T01:23:30.310Z,100170.41
2019-06-08T01:27:35.486Z,100151.02
2019-06-08T01:31:40.852Z,100163.37
2019-06-08T01:35:45.984Z,100158.69
2019-06-08T01:39:51.135Z,100171.88
2019-06-08T01:43:56.214Z,100162.45
2019-06-08T01:48:15.995Z,100191.17
2019-06-08T01:52:09.249Z,100173.45
2019-06-08T01:56:14.397Z,100187.68
2019-06-08T02:00:29.630Z,100194.74
2019-06-08T02:04:26.324Z,100194.74
2019-06-08T02:08:32.606Z,100198.04
2019-06-08T02:12:37.698Z,100212.89
2019-06-08T02:16:42.872Z,100192.70
2019-06-08T02:20:48.021Z,100227.36
2019-06-08T02:24:53.079Z,100221.57
2019-06-08T02:28:59.414Z,100231.09
2019-06-08T02:33:06.575Z,100262.12
2019-06-08T02:37:11.775Z,100209.75
2019-06-08T02:41:16.907Z,100251.38
2019-06-08T02:45:22.059Z,100226.03
2019-06-08T02:49:28.988Z,100265.47
2019-06-08T02:53:36.050Z,100230.25
2019-06-08T02:57:42.813Z,100275.21
2019-06-08T03:01:50.147Z,100248.92
2019-06-08T03:05:57.503Z,100263.52
2019-06-08T03:10:04.827Z,100289.81
2019-06-08T03:14:10.080Z,100282.10
2019-06-08T03:18:15.272Z,100290.59
2019-06-08T03:22:20.411Z,100296.73
2019-06-08T03:26:25.389Z,100303.23
2019-06-08T03:30:30.483Z,100309.88
2019-06-08T03:34:39.935Z,100312.89
2019-06-08T03:38:44.486Z,100321.22
2019-06-08T03:42:50.877Z,100336.30
2019-06-08T03:46:56.160Z,100343.30
2019-06-08T03:51:01.785Z,100363.22
2019-06-08T03:55:06.962Z,100368.38
2019-06-08T03:59:12.159Z,100366.93
2019-06-08T04:03:17.277Z,100380.31
2019-06-08T04:07:22.455Z,100388.40
2019-06-08T04:11:27.524Z,100396.47
2019-06-08T04:15:33.094Z,100387.80
2019-06-08T04:19:39.836Z,100381.50
2019-06-08T04:23:46.891Z,100381.86
2019-06-08T04:27:52.291Z,100396.45
2019-06-08T04:31:57.469Z,100396.33
2019-06-08T04:36:02.517Z,100395.97
2019-06-08T04:40:08.517Z,100411.00
2019-06-08T04:44:13.651Z,100411.00
2019-06-08T04:48:18.935Z,100433.45
2019-06-08T04:52:24.157Z,100416.06
2019-06-08T04:56:29.465Z,100416.05
2019-06-08T05:00:34.589Z,100426.06
2019-06-08T05:04:40.982Z,100444.26
2019-06-08T05:08:47.356Z,100430.03
2019-06-08T05:12:52.907Z,100433.52
2019-06-08T05:16:57.996Z,100453.00
2019-06-08T05:21:03.174Z,100451.42
2019-06-08T05:25:08.796Z,100457.45
2019-06-08T05:29:14.156Z,100456.00
2019-06-08T05:33:19.241Z,100480.56
2019-06-08T05:37:24.330Z,100471.05
2019-06-08T05:41:29.400Z,100477.68
2019-06-08T05:45:34.587Z,100473.45
2019-06-08T05:49:39.788Z,100466.59
2019-06-08T05:53:45.833Z,100472.86
2019-06-08T05:57:51.064Z,100474.25
2019-06-08T06:01:56.259Z,100488.41
2019-06-08T06:06:01.364Z,100485.16
2019-06-08T06:10:07.187Z,100502.52
2019-06-08T06:14:12.288Z,100507.35
2019-06-08T06:18:17.474Z,100530.84
2019-06-08T06:22:22.601Z,100529.39
2019-06-08T06:26:27.916Z,100531.33
2019-06-08T06:30:33.036Z,100538.78
2019-06-08T06:34:38.261Z,100554.55
2019-06-08T06:38:43.799Z,100529.98
2019-06-08T06:42:50.058Z,100560.23
2019-06-08T06:46:55.265Z,100571.85
2019-06-08T06:51:00.412Z,100588.52
2019-06-08T06:55:06.021Z,100581.08
2019-06-08T06:59:12.379Z,100578.52
2019-06-08T07:03:17.457Z,100598.03
2019-06-08T07:07:22.691Z,100581.90
2019-06-08T07:11:27.882Z,100598.55
2019-06-08T07:15:41.127Z,100630.53
2019-06-08T07:19:39.912Z,100592.59
2019-06-08T07:23:46.267Z,100601.61
2019-06-08T07:27:52.705Z,100635.60
2019-06-08T07:31:59.233Z,100627.42
2019-06-08T07:36:04.480Z,100611.24
2019-06-08T07:40:09.982Z,100648.66
2019-06-08T07:44:15.032Z,100632.61
2019-06-08T07:48:20.184Z,100641.70
2019-06-08T07:52:25.327Z,100652.20
2019-06-08T07:56:30.518Z,100639.73
2019-06-08T08:00:36.748Z,100682.38
2019-06-08T08:04:41.810Z,100672.72
2019-06-08T08:08:48.338Z,100672.72
2019-06-08T08:12:54.750Z,100674.66
2019-06-08T08:16:59.909Z,100710.39
2019-06-08T08:21:17.831Z,100670.63
2019-06-08T08:25:12.121Z,100673.05
2019-06-08T08:29:17.675Z,100695.25
2019-06-08T08:33:23.164Z,100710.76
2019-06-08T08:37:28.649Z,100689.39
2019-06-08T08:41:33.775Z,100689.75
2019-06-08T08:45:40.683Z,100713.42
2019-06-08T08:49:47.857Z,100705.00
2019-06-08T08:53:55.830Z,100693.08
2019-06-08T08:58:02.032Z,100720.48
2019-06-08T09:02:11.006Z,100718.69
2019-06-08T09:06:13.380Z,100749.41
2019-06-08T09:10:18.643Z,100723.39
2019-06-08T09:14:24.107Z,100730.30
2019-06-08T09:18:29.286Z,100740.97
2019-06-08T09:22:47.162Z,100751.81
2019-06-08T09:26:41.469Z,100773.26
2019-06-08T09:30:48.399Z,100746.53
2019-06-08T09:34:54.641Z,100766.53
2019-06-08T09:39:03.042Z,100827.80
2019-06-08T09:43:12.774Z,100791.04
2019-06-08T09:47:14.874Z,100804.17
2019-06-08T09:51:20.171Z,100789.77
2019-06-08T09:55:25.272Z,100789.77
2019-06-08T09:59:30.426Z,100816.27
2019-06-08T10:03:35.576Z,100811.67
2019-06-08T10:07:40.705Z,100827.65
2019-06-08T10:11:45.840Z,100831.17
2019-06-08T10:15:51.520Z,100840.61
2019-06-08T10:20:00.228Z,100846.87
2019-06-08T10:24:06.131Z,100846.87
2019-06-08T10:28:14.172Z,100843.97
2019-06-08T10:32:19.271Z,100865.41
2019-06-08T10:36:24.344Z,100850.84
2019-06-08T10:40:29.462Z,100863.80
2019-06-08T10:44:34.602Z,100857.98
2019-06-08T10:48:39.725Z,100874.84
2019-06-08T10:52:44.833Z,100869.52
2019-06-08T10:56:50.057Z,100861.18
2019-06-08T11:00:55.173Z,100871.22
2019-06-08T11:05:04.758Z,100885.13
2019-06-08T11:09:12.677Z,100890.39
2019-06-08T11:13:15.332Z,100887.67
2019-06-08T11:17:21.161Z,100902.17
2019-06-08T11:21:28.610Z,100906.20
2019-06-08T11:25:37.651Z,100900.63
2019-06-08T11:29:42.877Z,100914.31
2019-06-08T11:33:48.994Z,100928.84
2019-06-08T11:37:54.409Z,100930.14
2019-06-08T11:42:00.311Z,100947.94
2019-06-08T11:46:06.616Z,100929.75
2019-06-08T11:50:13.384Z,100944.75
2019-06-08T11:54:32.884Z,100951.13
2019-06-08T11:58:28.315Z,100946.24
2019-06-08T12:02:33.995Z,101042.74
2019-06-08T12:06:39.175Z,100975.73
2019-06-08T12:10:44.375Z,100967.55
2019-06-08T12:14:49.552Z,100980.23
2019-06-08T12:18:54.638Z,100956.25
2019-06-08T12:22:59.851Z,100971.15
2019-06-08T12:27:14.385Z,100971.55
2019-06-08T12:31:17.092Z,100990.63
2019-06-08T12:35:18.813Z,100952.77
2019-06-08T12:39:23.900Z,100985.74
2019-06-08T12:43:29.073Z,100982.61
2019-06-08T12:47:34.178Z,100984.06
2019-06-08T12:51:40.315Z,100986.98
2019-06-08T12:55:47.502Z,100970.12
2019-06-08T12:59:52.228Z,100974.92
2019-06-08T13:03:58.148Z,100981.98
2019-06-08T13:08:03.318Z,100988.17
2019-06-08T13:12:09.790Z,101001.52
2019-06-08T13:16:19.354Z,100986.67
2019-06-08T13:20:22.571Z,100986.67
2019-06-08T13:24:28.522Z,100983.11
2019-06-08T13:28:34.109Z,101016.74
2019-06-08T13:32:40.762Z,100997.29
2019-06-08T13:36:48.369Z,101002.78
2019-06-08T13:40:52.838Z,101011.41
2019-06-08T13:44:58.016Z,101026.28
2019-06-08T13:49:03.213Z,101017.42
2019-06-08T13:53:10.562Z,101007.88
2019-06-08T13:57:19.993Z,101010.39
2019-06-08T14:01:23.891Z,101020.37
2019-06-08T14:05:31.053Z,101031.52
2019-06-08T14:09:38.155Z,101024.13
2019-06-08T14:13:42.900Z,101008.80
2019-06-08T14:17:48.390Z,101000.56
2019-06-08T14:21:53.550Z,100996.38
2019-06-08T14:26:00.245Z,101001.97
2019-06-08T14:30:08.312Z,101014.59
2019-06-08T14:34:13.094Z,101011.66
2019-06-08T14:38:22.510Z,101028.53
2019-06-08T14:42:29.700Z,101019.63
2019-06-08T14:46:31.778Z,101031.25
2019-06-08T14:50:40.238Z,101045.97
2019-06-08T14:54:43.865Z,101039.17
2019-06-08T14:58:49.339Z,101051.55
2019-06-08T15:02:54.453Z,101035.29
2019-06-08T15:06:59.686Z,101052.73
2019-06-08T15:11:04.874Z,101110.42
2019-06-08T15:15:11.158Z,101092.73
2019-06-08T15:19:18.445Z,101060.63
2019-06-08T15:23:24.663Z,101058.34
2019-06-08T15:27:33.034Z,101058.50
2019-06-08T15:31:38.928Z,101063.70
2019-06-08T15:35:43.686Z,101074.34
2019-06-08T15:39:51.474Z,101068.56
2019-06-08T15:43:57.517Z,101085.54
2019-06-08T15:48:02.426Z,101140.93
2019-06-08T15:52:07.573Z,101142.70
2019-06-08T15:56:12.756Z,101181.38
2019-06-08T16:00:18.587Z,101140.09
2019-06-08T16:04:23.707Z,101133.56
2019-06-08T16:08:30.288Z,101129.13
2019-06-08T16:12:35.381Z,101097.63
2019-06-08T16:16:40.541Z,101106.73
2019-06-08T16:20:46.003Z,101120.22
2019-06-08T16:24:51.159Z,101116.58
2019-06-08T16:28:56.292Z,101124.16
2019-06-08T16:33:01.346Z,101140.73
2019-06-08T16:37:06.462Z,101151.17
2019-06-08T16:41:11.648Z,101158.66
2019-06-08T16:45:16.994Z,101160.51
2019-06-08T16:49:22.124Z,101160.38
2019-06-08T16:53:27.468Z,101162.08
2019-06-08T16:57:35.093Z,101165.31
2019-06-08T17:01:39.533Z,101172.78
2019-06-08T17:05:44.712Z,101166.26
2019-06-08T17:09:49.810Z,101166.26
2019-06-08T17:13:54.853Z,101176.20
2019-06-08T17:17:59.964Z,101161.94
2019-06-08T17:22:05.052Z,101163.72
2019-06-08T17:26:10.147Z,101184.06
2019-06-08T17:30:15.557Z,101186.14
2019-06-08T17:34:20.912Z,101176.23
2019-06-08T17:38:27.030Z,101190.84
2019-06-08T17:42:32.188Z,101182.73
2019-06-08T17:46:39.050Z,101173.24
2019-06-08T17:50:44.504Z,101178.71
2019-06-08T17:54:49.635Z,101183.83
2019-06-08T17:58:54.802Z,101192.25
2019-06-08T18:03:00.625Z,101191.65
2019-06-08T18:07:07.173Z,101191.92
2019-06-08T18:11:12.935Z,101193.27
2019-06-08T18:15:18.040Z,101202.92
2019-06-08T18:19:28.286Z,101208.77
2019-06-08T18:23:34.323Z,101205.14
2019-06-08T18:27:42.088Z,101209.63
2019-06-08T18:31:48.115Z,101210.11
2019-06-08T18:35:54.251Z,101200.80
2019-06-08T18:39:59.425Z,101206.88
2019-06-08T18:44:04.539Z,101208.78
2019-06-08T18:48:09.627Z,101214.70
2019-06-08T18:52:14.711Z,101229.80
2019-06-08T18:56:19.870Z,101233.03
2019-06-08T19:00:40.060Z,101226.73
2019-06-08T19:04:43.293Z,101219.98
2019-06-08T19:08:50.553Z,101234.16
2019-06-08T19:12:55.451Z,101238.27
2019-06-08T19:17:00.837Z,101246.87
2019-06-08T19:21:07.785Z,101246.52
2019-06-08T19:25:12.967Z,101253.29
2019-06-08T19:29:19.400Z,101256.48
2019-06-08T19:33:24.632Z,101250.91
2019-06-08T19:37:32.705Z,101258.05
2019-06-08T19:41:38.119Z,101259.73
2019-06-08T19:45:44.259Z,101278.52
2019-06-08T19:49:54.482Z,101275.80
2019-06-08T19:53:58.506Z,101274.56
2019-06-08T19:58:04.921Z,101286.55
2019-06-08T20:02:10.068Z,101290.91
2019-06-08T20:06:17.586Z,101300.60
2019-06-08T20:10:22.069Z,101303.30
2019-06-08T20:14:27.137Z,101310.61
2019-06-08T20:18:32.282Z,101307.75
2019-06-08T20:22:37.909Z,101304.82
2019-06-08T20:26:44.186Z,101303.63
2019-06-08T20:30:50.563Z,101313.92
2019-06-08T20:34:57.498Z,101318.45
2019-06-08T20:39:02.724Z,101324.09
2019-06-08T20:43:09.780Z,101322.27
2019-06-08T20:47:14.857Z,101331.09
2019-06-08T20:51:19.987Z,101328.64
2019-06-08T20:55:25.278Z,101343.75
2019-06-08T20:59:34.026Z,101348.76
2019-06-08T21:03:37.256Z,101348.66
2019-06-08T21:07:42.347Z,101341.05
2019-06-08T21:11:49.790Z,101346.72
2019-06-08T21:15:57.271Z,101343.06
2019-06-08T21:20:01.041Z,101348.56
2019-06-08T21:24:07.875Z,101350.25
2019-06-08T21:28:13.160Z,101350.23
2019-06-08T21:32:21.535Z,101350.72
2019-06-08T21:36:25.124Z,101356.28
2019-06-08T21:40:30.293Z,101351.86
2019-06-08T21:44:37.241Z,101356.03
2019-06-08T21:48:42.331Z,101348.22
2019-06-08T21:52:48.960Z,101345.19
2019-06-08T21:56:54.738Z,101351.02
2019-06-08T22:01:01.145Z,101351.95
2019-06-08T22:05:08.194Z,101349.58
2019-06-08T22:09:13.476Z,101349.33
2019-06-08T22:13:18.681Z,101356.73
2019-06-08T22:17:23.794Z,101352.41
2019-06-08T22:21:29.083Z,101354.20
2019-06-08T22:25:34.231Z,101364.84
2019-06-08T22:29:39.310Z,101361.94
2019-06-08T22:33:44.683Z,101363.87
2019-06-08T22:37:51.716Z,101364.03
2019-06-08T22:41:58.514Z,101375.00
2019-06-08T22:46:04.286Z,101365.06
2019-06-08T22:50:10.692Z,101372.78
2019-06-08T22:54:17.039Z,101375.67
2019-06-08T22:58:22.179Z,101377.59
2019-06-08T23:02:27.829Z,101378.48
2019-06-08T23:06:33.251Z,101378.09
2019-06-08T23:10:38.356Z,101375.28
2019-06-08T23:14:44.463Z,101382.37
2019-06-08T23:18:49.663Z,101382.83
2019-06-08T23:22:55.659Z,101381.04
2019-06-08T23:27:02.140Z,101390.98
2019-06-08T23:31:19.318Z,101389.98
2019-06-08T23:35:14.305Z,101381.06
2019-06-08T23:39:19.380Z,101393.19
2019-06-08T23:43:24.460Z,101390.83
2019-06-08T23:47:29.548Z,101386.89
2019-06-08T23:51:34.694Z,101392.03
2019-06-08T23:55:39.912Z,101388.92
2019-06-08T23:59:47.824Z,101397.38
